WMKK METAR and TAF | Updated Today

WMKK METAR

Kuala Lumpur International Airport

Observation time: 29 min. ago

WMKK 011430Z 00000KT 9000 FEW010 25/23 Q1010 NOSIG

Need help? Read our tutorial on how to read METARs or read the parsed version below.

Kuala Lumpur International Airport (WMKK) METAR

  • Weather conditions on Wed, 01 Feb 2023 14:30:00 +0000 (29 min. ago):
  • Present conditions: Dry
  • Clouds: A few at 305 meters
  • Visibility: 9000 meters
  • Wind: Calm
  • Temperature: 25 celsius
  • Dew point: 23 celsius
  • Pressure: 1010 millibars
  • Remarks: None


Useful to know...

WMKK TAF

Kuala Lumpur International Airport

TAF WMKK 011100Z 0112/0218 09005KT 9000 FEW022 TEMPO 0207/0211 5000 TSRA FEW017CB SCT018
Observation time: 3:59 hr. ago
Need help? Read our tutorial on how to read TAFs or read the parsed version below.

Parsed version of TAF for Kuala Lumpur International Airport (WMKK)

  • From 01 February at 12:00 UTC, to day 02 of the month at 18:00 UTC
  • Clouds: A few at 671 meters
  • Visibility: 9000 meters
  • Wind: 90 degrees at 5
  • Expected to arise temporarily, from 02 February at 07:00 UTC, to day 02 of the month at 11:00 UTC
  • Clouds: A few at 518 meters, cumulonimbus; scattered at 549 meters
  • Visibility: 5000 meters
  • Other: Thunderstorms rain